createdAt,value
2023-01-10T00:00:50.096Z,34.13
2023-01-10T00:03:18.920Z,22.20
2023-01-10T00:05:45.733Z,30.92
2023-01-10T00:08:15.970Z,21.73
2023-01-10T00:10:44.540Z,22.63
2023-01-10T00:13:15.239Z,25.77
2023-01-10T00:15:43.208Z,21.95
2023-01-10T00:18:10.238Z,23.95
2023-01-10T00:20:39.879Z,28.52
2023-01-10T00:23:07.181Z,20.33
2023-01-10T00:25:34.065Z,25.33
2023-01-10T00:28:03.667Z,22.17
2023-01-10T00:30:35.940Z,18.50
2023-01-10T00:33:02.698Z,25.90
2023-01-10T00:35:29.413Z,18.35
2023-01-10T00:37:56.394Z,25.40
2023-01-10T00:40:23.357Z,26.55
2023-01-10T00:42:50.133Z,26.90
2023-01-10T00:45:18.879Z,23.75
2023-01-10T00:47:45.721Z,18.92
2023-01-10T00:50:12.496Z,19.98
2023-01-10T00:52:41.027Z,29.60
2023-01-10T00:55:09.220Z,20.65
2023-01-10T00:57:36.325Z,20.83
2023-01-10T01:00:03.775Z,22.50
2023-01-10T01:02:31.951Z,20.42
2023-01-10T01:04:58.671Z,28.48
2023-01-10T01:07:25.616Z,29.88
2023-01-10T01:09:52.621Z,24.80
2023-01-10T01:12:19.363Z,20.80
2023-01-10T01:14:47.312Z,19.73
2023-01-10T01:17:16.440Z,19.48
2023-01-10T01:19:44.834Z,22.15
2023-01-10T01:22:11.878Z,31.55
2023-01-10T01:24:38.809Z,17.80
2023-01-10T01:27:05.693Z,20.42
2023-01-10T01:29:42.285Z,27.08
2023-01-10T01:32:09.596Z,24.90
2023-01-10T01:34:36.479Z,19.05
2023-01-10T01:37:04.871Z,21.55
2023-01-10T01:39:31.679Z,24.02
2023-01-10T01:41:58.478Z,20.73
2023-01-10T01:44:30.820Z,22.05
2023-01-10T01:47:06.788Z,22.70
2023-01-10T01:49:38.245Z,17.95
2023-01-10T01:52:12.076Z,17.98
2023-01-10T01:54:38.978Z,18.70
2023-01-10T01:57:11.011Z,15.88
2023-01-10T01:59:43.416Z,16.30
2023-01-10T02:02:16.969Z,14.05
2023-01-10T02:04:49.738Z,11.65
2023-01-10T02:07:18.532Z,16.75
2023-01-10T02:09:50.345Z,21.38
2023-01-10T02:12:17.751Z,17.60
2023-01-10T02:14:45.405Z,29.13
2023-01-10T02:17:13.776Z,27.42
2023-01-10T02:19:51.506Z,22.70
2023-01-10T02:22:46.582Z,23.08
2023-01-10T02:25:48.518Z,23.08
2023-01-10T02:28:41.418Z,21.88
2023-01-10T02:31:25.466Z,28.63
2023-01-10T02:34:05.721Z,30.75
2023-01-10T02:36:43.707Z,22.75
2023-01-10T02:39:18.621Z,23.83
2023-01-10T02:41:53.634Z,16.90
2023-01-10T02:44:29.394Z,21.40
2023-01-10T02:46:56.695Z,24.35
2023-01-10T02:49:24.796Z,27.45
2023-01-10T02:51:51.993Z,21.05
2023-01-10T02:54:22.137Z,15.68
2023-01-10T02:57:10.946Z,18.50
2023-01-10T02:59:50.565Z,22.20
2023-01-10T03:02:26.991Z,23.58
2023-01-10T03:05:04.922Z,26.02
2023-01-10T03:07:38.839Z,17.33
2023-01-10T03:10:13.544Z,20.45
2023-01-10T03:12:46.935Z,20.52
2023-01-10T03:15:20.340Z,23.58
2023-01-10T03:17:51.727Z,20.92
2023-01-10T03:22:50.080Z,25.50
2023-01-10T03:25:20.145Z,23.88
2023-01-10T03:27:52.672Z,21.42
2023-01-10T03:30:26.515Z,23.92
2023-01-10T03:32:55.261Z,32.85
2023-01-10T03:35:32.838Z,25.48
2023-01-10T03:38:06.779Z,31.13
2023-01-10T03:40:44.465Z,20.17
2023-01-10T03:43:19.250Z,29.05
2023-01-10T03:45:56.142Z,24.20
2023-01-10T03:48:27.768Z,35.85
2023-01-10T03:50:57.579Z,19.02
2023-01-10T03:53:25.766Z,26.23
2023-01-10T03:55:52.814Z,30.15
2023-01-10T03:58:20.125Z,31.77
2023-01-10T04:00:48.004Z,27.60
2023-01-10T04:03:15.482Z,33.42
2023-01-10T04:05:42.411Z,31.42
2023-01-10T04:08:10.841Z,22.77
2023-01-10T04:10:38.311Z,30.00
2023-01-10T04:13:05.401Z,50.03
2023-01-10T04:15:32.870Z,38.70
2023-01-10T04:17:59.914Z,29.33
2023-01-10T04:20:26.822Z,28.10
2023-01-10T04:22:53.901Z,31.13
2023-01-10T04:25:23.205Z,29.55
2023-01-10T04:27:50.403Z,27.42
2023-01-10T04:30:17.753Z,18.42
2023-01-10T04:32:45.026Z,22.30
2023-01-10T04:35:12.897Z,26.73
2023-01-10T04:37:39.626Z,18.67
2023-01-10T04:40:08.758Z,19.75
2023-01-10T04:42:37.203Z,17.90
2023-01-10T04:45:04.797Z,29.08
2023-01-10T04:47:31.576Z,23.20
2023-01-10T04:49:58.400Z,18.77
2023-01-10T04:52:25.584Z,23.35
2023-01-10T04:54:52.318Z,15.80
2023-01-10T04:57:19.246Z,27.63
2023-01-10T04:59:47.591Z,17.27
2023-01-10T05:02:14.492Z,22.00
2023-01-10T05:04:41.700Z,14.52
2023-01-10T05:07:08.654Z,22.55
2023-01-10T05:09:35.517Z,13.07
2023-01-10T05:12:06.535Z,12.38
2023-01-10T05:14:33.355Z,13.85
2023-01-10T05:17:06.681Z,12.88
2023-01-10T05:19:33.708Z,11.20
2023-01-10T05:22:02.585Z,14.75
2023-01-10T05:24:30.664Z,13.02
2023-01-10T05:26:57.632Z,16.83
2023-01-10T05:29:24.427Z,18.58
2023-01-10T05:31:51.452Z,18.15
2023-01-10T05:34:19.917Z,17.67
2023-01-10T05:36:46.888Z,20.92
2023-01-10T05:39:13.730Z,12.95
2023-01-10T05:41:40.621Z,14.00
2023-01-10T05:44:07.618Z,17.25
2023-01-10T05:46:34.669Z,15.02
2023-01-10T05:49:04.398Z,10.68
2023-01-10T05:51:32.689Z,14.70
2023-01-10T05:53:59.432Z,12.77
2023-01-10T05:56:29.400Z,15.00
2023-01-10T05:59:05.342Z,11.07
2023-01-10T06:01:34.919Z,13.68
2023-01-10T06:04:01.598Z,16.40
2023-01-10T06:06:28.317Z,8.73
2023-01-10T06:08:56.586Z,12.15
2023-01-10T06:11:24.380Z,13.52
2023-01-10T06:13:51.277Z,9.48
2023-01-10T06:16:18.266Z,12.95
2023-01-10T06:18:44.953Z,15.75
2023-01-10T06:21:11.603Z,10.40
2023-01-10T06:23:38.392Z,19.60
2023-01-10T06:26:06.681Z,15.95
2023-01-10T06:28:33.621Z,14.75
2023-01-10T06:31:00.469Z,16.40
2023-01-10T06:33:27.172Z,30.73
2023-01-10T06:35:53.972Z,23.88
2023-01-10T06:38:20.879Z,34.92
2023-01-10T06:40:47.679Z,26.13
2023-01-10T06:43:15.880Z,24.83
2023-01-10T06:45:42.767Z,36.92
2023-01-10T06:48:09.455Z,23.52
2023-01-10T06:50:36.614Z,32.15
2023-01-10T06:53:04.661Z,26.95
2023-01-10T06:55:31.676Z,31.08
2023-01-10T06:58:00.802Z,24.63
2023-01-10T07:00:30.259Z,33.42
2023-01-10T07:02:59.236Z,42.92
2023-01-10T07:05:26.184Z,32.53
2023-01-10T07:07:59.324Z,33.03
2023-01-10T07:10:26.049Z,32.97
2023-01-10T07:12:54.707Z,38.10
2023-01-10T07:15:21.479Z,44.05
2023-01-10T07:17:49.609Z,44.30
2023-01-10T07:20:16.921Z,37.40
2023-01-10T07:22:43.658Z,45.65
2023-01-10T07:25:10.912Z,40.50
2023-01-10T07:27:37.841Z,36.35
2023-01-10T07:30:05.961Z,42.72
2023-01-10T07:32:34.182Z,48.40
2023-01-10T07:35:02.696Z,32.38
2023-01-10T07:37:29.457Z,49.00
2023-01-10T07:39:56.216Z,37.70
2023-01-10T07:42:23.245Z,37.17
2023-01-10T07:44:50.318Z,32.05
2023-01-10T07:47:17.122Z,39.42
2023-01-10T07:49:44.156Z,37.22
2023-01-10T07:52:12.364Z,35.45
2023-01-10T07:54:39.280Z,39.75
2023-01-10T07:57:06.042Z,33.63
2023-01-10T07:59:32.801Z,36.00
2023-01-10T08:01:59.483Z,30.45
2023-01-10T08:04:26.351Z,29.48
2023-01-10T08:06:55.312Z,61.17
2023-01-10T08:09:23.532Z,36.78
2023-01-10T08:11:50.391Z,31.20
2023-01-10T08:14:17.352Z,34.45
2023-01-10T08:16:44.711Z,43.92
2023-01-10T08:19:13.724Z,27.08
2023-01-10T08:21:40.424Z,31.98
2023-01-10T08:24:07.539Z,30.92
2023-01-10T08:26:35.829Z,36.13
2023-01-10T08:29:02.552Z,33.72
2023-01-10T08:31:29.211Z,39.03
2023-01-10T08:33:56.113Z,38.08
2023-01-10T08:36:22.909Z,40.33
2023-01-10T08:38:49.635Z,42.20
2023-01-10T08:41:16.729Z,32.95
2023-01-10T08:43:44.955Z,41.55
2023-01-10T08:46:11.781Z,42.67
2023-01-10T08:48:39.069Z,36.15
2023-01-10T08:51:09.304Z,29.35
2023-01-10T08:53:36.372Z,36.63
2023-01-10T08:56:05.537Z,40.70
2023-01-10T08:58:32.581Z,34.30
2023-01-10T09:01:04.393Z,35.78
2023-01-10T09:03:31.578Z,31.38
2023-01-10T09:05:59.397Z,31.65
2023-01-10T09:08:26.342Z,28.88
2023-01-10T09:10:53.272Z,36.47
2023-01-10T09:13:20.327Z,24.02
2023-01-10T09:15:47.107Z,25.05
2023-01-10T09:18:15.165Z,26.80
2023-01-10T09:20:43.154Z,25.02
2023-01-10T09:23:12.457Z,30.58
2023-01-10T09:25:39.355Z,22.90
2023-01-10T09:28:07.018Z,26.92
2023-01-10T09:30:34.040Z,24.48
2023-01-10T09:33:01.108Z,21.45
2023-01-10T09:35:30.844Z,26.40
2023-01-10T09:37:59.422Z,29.15
2023-01-10T09:40:37.977Z,23.17
2023-01-10T09:43:14.862Z,20.63
2023-01-10T09:45:51.253Z,18.85
2023-01-10T09:48:24.529Z,30.13
2023-01-10T09:51:10.463Z,32.92
2023-01-10T09:53:42.532Z,24.65
2023-01-10T09:56:11.008Z,26.35
2023-01-10T09:58:39.695Z,29.67
2023-01-10T10:01:09.941Z,29.30
2023-01-10T10:03:43.438Z,25.75
2023-01-10T10:06:13.232Z,38.13
2023-01-10T10:08:40.685Z,26.80
2023-01-10T10:11:22.979Z,38.38
2023-01-10T10:14:02.049Z,37.97
2023-01-10T10:16:42.253Z,22.08
2023-01-10T10:19:17.252Z,36.22
2023-01-10T10:21:59.567Z,30.35
2023-01-10T10:24:38.537Z,29.25
2023-01-10T10:27:16.218Z,26.10
2023-01-10T10:30:11.952Z,27.15
2023-01-10T10:33:07.624Z,27.00
2023-01-10T10:35:38.554Z,32.40
2023-01-10T10:38:14.412Z,31.27
2023-01-10T10:40:44.689Z,26.58
2023-01-10T10:43:16.734Z,39.92
2023-01-10T10:45:47.534Z,37.60
2023-01-10T10:48:18.006Z,33.58
2023-01-10T10:50:52.261Z,32.47
2023-01-10T10:53:21.023Z,28.98
2023-01-10T10:55:48.572Z,44.90
2023-01-10T10:58:15.722Z,28.10
2023-01-10T11:00:43.000Z,36.42
2023-01-10T11:03:25.453Z,39.72
2023-01-10T11:05:53.085Z,41.67
2023-01-10T11:08:22.307Z,31.92
2023-01-10T11:10:52.491Z,37.42
2023-01-10T11:13:27.579Z,32.13
2023-01-10T11:15:56.180Z,39.53
2023-01-10T11:18:24.970Z,44.03
2023-01-10T11:20:57.468Z,36.17
2023-01-10T11:23:35.310Z,34.78
2023-01-10T11:26:02.779Z,41.60
2023-01-10T11:28:31.980Z,48.25
2023-01-10T11:31:00.305Z,35.42
2023-01-10T11:33:30.931Z,41.33
2023-01-10T11:36:00.790Z,35.33
2023-01-10T11:38:29.719Z,45.08
2023-01-10T11:40:58.573Z,36.88
2023-01-10T11:43:29.606Z,36.92
2023-01-10T11:45:59.063Z,40.28
2023-01-10T11:48:53.220Z,38.22
2023-01-10T11:51:24.505Z,33.95
2023-01-10T11:53:58.780Z,37.70
2023-01-10T11:56:28.907Z,40.33
2023-01-10T11:58:58.902Z,35.47
2023-01-10T12:01:28.788Z,47.80
2023-01-10T12:03:56.080Z,35.25
2023-01-10T12:06:22.858Z,44.40
2023-01-10T12:08:49.890Z,37.97
2023-01-10T12:11:27.333Z,34.22
2023-01-10T12:13:55.801Z,32.63
2023-01-10T12:16:24.469Z,46.70
2023-01-10T12:18:53.229Z,45.38
2023-01-10T12:21:25.145Z,37.70
2023-01-10T12:23:54.390Z,46.50
2023-01-10T12:26:23.609Z,42.42
2023-01-10T12:28:53.495Z,42.13
2023-01-10T12:31:22.327Z,35.85
2023-01-10T12:33:54.687Z,37.35
2023-01-10T12:36:33.414Z,35.83
2023-01-10T12:39:13.616Z,36.75
2023-01-10T12:41:52.329Z,45.83
2023-01-10T12:44:23.925Z,35.08
2023-01-10T12:47:13.381Z,36.53
2023-01-10T12:49:47.676Z,32.80
2023-01-10T12:52:23.114Z,35.13
2023-01-10T12:54:51.957Z,39.25
2023-01-10T12:57:26.815Z,35.00
2023-01-10T12:59:55.798Z,49.83
2023-01-10T13:02:27.226Z,38.88
2023-01-10T13:04:59.491Z,39.60
2023-01-10T13:07:28.906Z,34.60
2023-01-10T13:09:56.462Z,34.85
2023-01-10T13:12:32.745Z,40.80
2023-01-10T13:15:06.839Z,40.78
2023-01-10T13:17:42.129Z,36.97
2023-01-10T13:20:25.733Z,37.10
2023-01-10T13:22:54.793Z,36.50
2023-01-10T13:25:25.074Z,34.40
2023-01-10T13:28:03.498Z,34.20
2023-01-10T13:30:33.683Z,36.28
2023-01-10T13:33:05.272Z,35.60
2023-01-10T13:35:41.516Z,31.80
2023-01-10T13:38:18.356Z,33.63
2023-01-10T13:41:01.254Z,36.30
2023-01-10T13:43:39.098Z,27.98
2023-01-10T13:46:37.826Z,32.45
2023-01-10T13:49:46.289Z,26.10
2023-01-10T13:52:40.403Z,35.35
2023-01-10T13:55:29.241Z,31.63
2023-01-10T13:58:02.536Z,35.50
2023-01-10T14:00:48.385Z,38.72
2023-01-10T14:03:38.442Z,32.55
2023-01-10T14:06:11.578Z,26.65
2023-01-10T14:08:39.664Z,32.30
2023-01-10T14:11:09.006Z,31.95
2023-01-10T14:13:36.712Z,32.90
2023-01-10T14:16:05.579Z,33.53
2023-01-10T14:18:35.635Z,28.45
2023-01-10T14:21:04.707Z,24.15
2023-01-10T14:23:36.795Z,28.95
2023-01-10T14:26:04.710Z,25.63
2023-01-10T14:28:35.783Z,29.70
2023-01-10T14:33:34.227Z,21.88
2023-01-10T14:36:07.356Z,28.42
2023-01-10T14:38:37.495Z,27.13
2023-01-10T14:41:07.316Z,27.25
2023-01-10T14:43:41.799Z,26.48
2023-01-10T14:46:14.538Z,27.85
2023-01-10T14:48:45.655Z,21.23
2023-01-10T14:51:19.397Z,24.63
2023-01-10T14:53:46.382Z,25.38
2023-01-10T14:56:21.495Z,25.95
2023-01-10T14:58:48.766Z,27.98
2023-01-10T15:01:22.874Z,25.08
2023-01-10T15:03:49.919Z,22.27
2023-01-10T15:06:16.759Z,26.42
2023-01-10T15:08:43.526Z,25.25
2023-01-10T15:11:12.998Z,22.30
2023-01-10T15:13:48.861Z,24.42
2023-01-10T15:16:32.366Z,26.58
2023-01-10T15:18:59.913Z,33.63
2023-01-10T15:21:27.355Z,29.92
2023-01-10T15:23:54.160Z,31.45
2023-01-10T15:26:28.296Z,24.95
2023-01-10T15:29:12.450Z,24.92
2023-01-10T15:31:41.584Z,24.70
2023-01-10T15:34:11.233Z,29.15
2023-01-10T15:36:45.736Z,30.70
2023-01-10T15:39:20.551Z,31.50
2023-01-10T15:41:47.600Z,26.42
2023-01-10T15:44:35.510Z,33.70
2023-01-10T15:47:04.408Z,28.70
2023-01-10T15:49:31.391Z,22.48
2023-01-10T15:51:58.091Z,29.08
2023-01-10T15:54:33.963Z,29.88
2023-01-10T15:57:06.273Z,25.40
2023-01-10T15:59:36.852Z,19.90
2023-01-10T16:02:20.484Z,27.63
2023-01-10T16:04:48.835Z,32.45
2023-01-10T16:07:19.232Z,37.40
2023-01-10T16:09:55.235Z,30.07
2023-01-10T16:12:27.195Z,35.92
2023-01-10T16:14:53.908Z,31.23
2023-01-10T16:17:22.395Z,26.38
2023-01-10T16:19:53.610Z,27.55
2023-01-10T16:22:20.357Z,20.38
2023-01-10T16:24:47.441Z,30.60
2023-01-10T16:27:14.276Z,23.58
2023-01-10T16:29:41.222Z,24.38
2023-01-10T16:32:13.859Z,25.63
2023-01-10T16:34:43.287Z,26.50
2023-01-10T16:37:10.047Z,25.50
2023-01-10T16:39:36.910Z,24.77
2023-01-10T16:42:03.754Z,22.60
2023-01-10T16:44:31.353Z,28.23
2023-01-10T16:46:58.928Z,21.08
2023-01-10T16:49:26.191Z,27.17
2023-01-10T16:51:54.693Z,28.33
2023-01-10T16:54:22.759Z,26.40
2023-01-10T16:56:49.656Z,24.52
2023-01-10T16:59:16.768Z,26.77
2023-01-10T17:01:47.624Z,26.80
2023-01-10T17:04:19.828Z,33.85
2023-01-10T17:06:46.707Z,26.08
2023-01-10T17:09:21.781Z,26.92
2023-01-10T17:11:53.454Z,25.98
2023-01-10T17:14:21.404Z,21.42
2023-01-10T17:16:48.300Z,20.67
2023-01-10T17:19:15.108Z,28.67
2023-01-10T17:21:41.982Z,20.42
2023-01-10T17:24:10.325Z,17.20
2023-01-10T17:26:38.486Z,27.52
2023-01-10T17:29:05.264Z,19.05
2023-01-10T17:31:32.156Z,15.55
2023-01-10T17:33:58.891Z,18.88
2023-01-10T17:36:25.888Z,26.17
2023-01-10T17:38:52.684Z,18.63
2023-01-10T17:41:19.603Z,18.52
2023-01-10T17:43:47.869Z,10.02
2023-01-10T17:46:14.867Z,16.85
2023-01-10T17:48:41.594Z,15.40
2023-01-10T17:51:08.425Z,12.63
2023-01-10T17:53:35.144Z,17.30
2023-01-10T17:56:01.885Z,13.63
2023-01-10T17:58:28.927Z,10.40
2023-01-10T18:00:57.406Z,8.45
2023-01-10T18:03:25.408Z,7.88
2023-01-10T18:05:53.841Z,11.20
2023-01-10T18:08:20.925Z,8.68
2023-01-10T18:10:48.324Z,9.35
2023-01-10T18:13:16.229Z,7.00
2023-01-10T18:15:45.318Z,8.50
2023-01-10T18:18:14.054Z,9.82
2023-01-10T18:20:41.223Z,5.28
2023-01-10T18:23:11.649Z,7.88
2023-01-10T18:25:38.403Z,6.40
2023-01-10T18:28:05.387Z,7.20
2023-01-10T18:30:32.182Z,4.30
2023-01-10T18:32:58.926Z,4.55
2023-01-10T18:35:27.576Z,4.57
2023-01-10T18:37:54.467Z,5.43
2023-01-10T18:40:21.141Z,3.60
2023-01-10T18:42:47.825Z,5.50
2023-01-10T18:45:14.725Z,4.80
2023-01-10T18:47:41.669Z,4.85
2023-01-10T18:50:09.403Z,3.47
2023-01-10T18:52:37.807Z,5.20
2023-01-10T18:55:05.412Z,7.47
2023-01-10T18:57:32.117Z,5.07
2023-01-10T18:59:58.847Z,3.30
2023-01-10T19:02:25.628Z,6.32
2023-01-10T19:04:52.387Z,15.15
2023-01-10T19:07:19.439Z,4.65
2023-01-10T19:09:50.704Z,5.05
2023-01-10T19:12:22.907Z,3.22
2023-01-10T19:14:49.774Z,2.75
2023-01-10T19:17:28.856Z,3.53
2023-01-10T19:19:55.665Z,3.40
2023-01-10T19:22:22.454Z,3.53
2023-01-10T19:24:50.848Z,4.20
2023-01-10T19:27:17.881Z,3.90
2023-01-10T19:29:47.176Z,4.63
2023-01-10T19:32:14.161Z,4.53
2023-01-10T19:34:46.969Z,5.95
2023-01-10T19:37:13.928Z,6.03
2023-01-10T19:39:41.184Z,5.85
2023-01-10T19:42:09.712Z,6.18
2023-01-10T19:44:36.775Z,6.32
2023-01-10T19:47:03.743Z,6.95
2023-01-10T19:49:34.090Z,7.80
2023-01-10T19:52:01.656Z,7.00
2023-01-10T19:54:31.442Z,7.85
2023-01-10T19:56:59.637Z,7.40
2023-01-10T19:59:28.237Z,8.93
2023-01-10T20:01:58.433Z,7.93
2023-01-10T20:04:25.393Z,9.32
2023-01-10T20:06:52.625Z,9.65
2023-01-10T20:09:19.508Z,9.63
2023-01-10T20:11:47.087Z,9.55
2023-01-10T20:14:17.109Z,10.60
2023-01-10T20:16:45.735Z,14.77
2023-01-10T20:19:14.444Z,11.20
2023-01-10T20:21:42.774Z,11.48
2023-01-10T20:24:15.446Z,10.77
2023-01-10T20:26:42.822Z,11.50
2023-01-10T20:29:12.775Z,12.32
2023-01-10T20:31:39.680Z,12.15
2023-01-10T20:34:08.092Z,12.60
2023-01-10T20:36:35.349Z,13.48
2023-01-10T20:39:02.119Z,15.70
2023-01-10T20:41:30.597Z,17.05
2023-01-10T20:43:58.230Z,15.95
2023-01-10T20:46:26.870Z,19.88
2023-01-10T20:48:57.430Z,20.55
2023-01-10T20:51:31.844Z,25.47
2023-01-10T20:53:58.929Z,24.67
2023-01-10T20:56:27.934Z,24.40
2023-01-10T20:58:55.240Z,23.35
2023-01-10T21:01:33.610Z,19.30
2023-01-10T21:04:07.855Z,24.15
2023-01-10T21:06:36.353Z,30.15
2023-01-10T21:09:07.795Z,26.42
2023-01-10T21:11:44.463Z,28.98
2023-01-10T21:14:21.762Z,27.50
2023-01-10T21:16:48.793Z,29.13
2023-01-10T21:19:15.915Z,28.67
2023-01-10T21:21:47.539Z,23.77
2023-01-10T21:24:14.601Z,29.00
2023-01-10T21:26:41.376Z,23.65
2023-01-10T21:29:13.086Z,19.77
2023-01-10T21:31:40.267Z,27.58
2023-01-10T21:34:07.039Z,22.90
2023-01-10T21:36:34.449Z,22.90
2023-01-10T21:39:02.636Z,29.08
2023-01-10T21:41:31.026Z,30.38
2023-01-10T21:43:57.826Z,28.95
2023-01-10T21:46:25.849Z,28.63
2023-01-10T21:48:52.850Z,23.95
2023-01-10T21:51:19.785Z,24.20
2023-01-10T21:53:46.517Z,25.65
2023-01-10T21:56:14.959Z,25.35
2023-01-10T21:58:42.056Z,22.85
2023-01-10T22:01:08.867Z,25.98
2023-01-10T22:03:35.698Z,24.17
2023-01-10T22:06:02.568Z,20.77
2023-01-10T22:08:29.363Z,22.13
2023-01-10T22:10:56.196Z,22.45
2023-01-10T22:13:28.723Z,23.63
2023-01-10T22:15:58.108Z,27.65
2023-01-10T22:18:25.097Z,19.13
2023-01-10T22:20:54.057Z,25.75
2023-01-10T22:23:22.832Z,19.13
2023-01-10T22:26:00.841Z,21.88
2023-01-10T22:28:29.511Z,22.00
2023-01-10T22:30:56.441Z,25.13
2023-01-10T22:33:24.077Z,21.10
2023-01-10T22:35:51.117Z,22.00
2023-01-10T22:38:18.140Z,22.85
2023-01-10T22:40:45.621Z,18.20
2023-01-10T22:43:12.946Z,19.40
2023-01-10T22:45:46.334Z,18.23
2023-01-10T22:48:16.171Z,17.58
2023-01-10T22:50:52.712Z,15.77
2023-01-10T22:53:21.761Z,16.80
2023-01-10T22:55:48.531Z,16.63
2023-01-10T22:58:15.295Z,16.95
2023-01-10T23:00:43.395Z,15.73
2023-01-10T23:03:10.405Z,17.40
2023-01-10T23:05:37.148Z,17.05
2023-01-10T23:08:04.385Z,16.92
2023-01-10T23:10:31.252Z,16.20
2023-01-10T23:12:58.481Z,15.82
2023-01-10T23:15:25.529Z,15.55
2023-01-10T23:17:54.116Z,16.40
2023-01-10T23:20:21.137Z,15.63
2023-01-10T23:22:47.969Z,15.93
2023-01-10T23:25:14.816Z,16.60
2023-01-10T23:27:41.521Z,18.58
2023-01-10T23:30:13.927Z,16.00
2023-01-10T23:32:40.904Z,16.45
2023-01-10T23:35:09.900Z,15.55
2023-01-10T23:37:39.590Z,15.07
2023-01-10T23:40:07.338Z,15.57
2023-01-10T23:42:34.074Z,15.00
2023-01-10T23:45:00.942Z,15.85
2023-01-10T23:47:27.672Z,15.95
2023-01-10T23:49:54.477Z,14.95
2023-01-10T23:52:22.879Z,14.18
2023-01-10T23:54:49.851Z,15.60
2023-01-10T23:57:18.322Z,14.60
2023-01-10T23:59:45.658Z,14.88
